createdAt,value
2023-04-07T00:02:25.773Z,16.07
2023-04-07T00:04:53.865Z,18.37
2023-04-07T00:07:21.894Z,18.30
2023-04-07T00:09:49.936Z,18.33
2023-04-07T00:12:17.949Z,18.43
2023-04-07T00:14:47.222Z,18.77
2023-04-07T00:17:15.123Z,20.30
2023-04-07T00:19:43.883Z,18.77
2023-04-07T00:22:11.840Z,18.90
2023-04-07T00:24:39.580Z,20.93
2023-04-07T00:27:07.473Z,21.67
2023-04-07T00:29:35.403Z,21.27
2023-04-07T00:32:04.865Z,20.90
2023-04-07T00:34:33.541Z,21.87
2023-04-07T00:37:01.245Z,20.47
2023-04-07T00:39:28.976Z,22.10
2023-04-07T00:41:58.189Z,21.17
2023-04-07T00:44:27.526Z,20.53
2023-04-07T00:46:55.466Z,20.73
2023-04-07T00:49:24.682Z,22.30
2023-04-07T00:51:52.496Z,21.53
2023-04-07T00:54:20.797Z,21.17
2023-04-07T00:56:48.633Z,21.23
2023-04-07T00:59:16.922Z,21.23
2023-04-07T01:01:47.737Z,20.47
2023-04-07T01:04:23.780Z,21.93
2023-04-07T01:07:00.397Z,21.40
2023-04-07T01:09:39.732Z,20.43
2023-04-07T01:12:14.744Z,21.97
2023-04-07T01:14:48.145Z,19.80
2023-04-07T01:17:40.399Z,22.40
2023-04-07T01:20:12.591Z,21.47
2023-04-07T01:22:47.067Z,20.47
2023-04-07T01:25:30.449Z,21.37
2023-04-07T01:28:15.195Z,21.30
2023-04-07T01:30:45.933Z,23.03
2023-04-07T01:33:15.757Z,21.13
2023-04-07T01:35:44.358Z,20.67
2023-04-07T01:38:13.621Z,22.37
2023-04-07T01:40:42.262Z,21.37
2023-04-07T01:43:11.152Z,22.13
2023-04-07T01:45:40.638Z,21.60
2023-04-07T01:48:10.964Z,21.67
2023-04-07T01:50:40.666Z,20.73
2023-04-07T01:53:09.329Z,21.90
2023-04-07T01:55:37.144Z,20.27
2023-04-07T01:58:09.866Z,20.07
2023-04-07T02:00:42.373Z,23.70
2023-04-07T02:03:21.832Z,21.40
2023-04-07T02:05:53.545Z,19.70
2023-04-07T02:08:25.437Z,20.10
2023-04-07T02:10:54.541Z,19.37
2023-04-07T02:13:23.580Z,18.37
2023-04-07T02:15:54.715Z,18.60
2023-04-07T02:18:25.600Z,20.00
2023-04-07T02:20:54.503Z,20.37
2023-04-07T02:23:22.379Z,19.20
2023-04-07T02:25:50.190Z,20.17
2023-04-07T02:28:18.011Z,19.77
2023-04-07T02:30:46.873Z,20.13
2023-04-07T02:33:14.680Z,18.97
2023-04-07T02:35:45.976Z,20.03
2023-04-07T02:38:13.888Z,19.53
2023-04-07T02:40:41.980Z,19.30
2023-04-07T02:43:09.766Z,20.00
2023-04-07T02:45:37.632Z,20.43
2023-04-07T02:48:05.818Z,18.63
2023-04-07T02:50:33.565Z,19.87
2023-04-07T02:53:02.884Z,20.13
2023-04-07T02:55:30.640Z,19.30
2023-04-07T02:57:58.384Z,20.67
2023-04-07T03:00:36.604Z,20.70
2023-04-07T03:03:10.383Z,20.27
2023-04-07T03:05:40.979Z,21.30
2023-04-07T03:08:13.099Z,21.00
2023-04-07T03:10:41.622Z,21.27
2023-04-07T03:13:12.725Z,19.77
2023-04-07T03:15:41.075Z,18.80
2023-04-07T03:18:08.985Z,18.77
2023-04-07T03:20:37.041Z,18.50
2023-04-07T03:23:13.039Z,18.27
2023-04-07T03:25:40.974Z,18.13
2023-04-07T03:28:09.247Z,18.60
2023-04-07T03:30:39.658Z,17.40
2023-04-07T03:33:08.302Z,16.17
2023-04-07T03:35:36.115Z,18.27
2023-04-07T03:38:03.965Z,17.90
2023-04-07T03:40:33.715Z,18.10
2023-04-07T03:43:01.840Z,17.23
2023-04-07T03:45:30.533Z,18.20
2023-04-07T03:47:58.784Z,17.77
2023-04-07T03:50:26.815Z,17.50
2023-04-07T03:53:08.289Z,18.63
2023-04-07T03:55:38.925Z,17.90
2023-04-07T03:58:14.804Z,17.87
2023-04-07T04:00:43.920Z,17.23
2023-04-07T04:03:13.530Z,16.00
2023-04-07T04:06:04.305Z,18.03
2023-04-07T04:08:33.778Z,16.50
2023-04-07T04:11:03.484Z,18.17
2023-04-07T04:13:37.487Z,16.03
2023-04-07T04:16:07.593Z,16.33
2023-04-07T04:18:37.737Z,16.60
2023-04-07T04:21:08.629Z,15.67
2023-04-07T04:23:37.832Z,16.60
2023-04-07T04:26:07.152Z,15.57
2023-04-07T04:28:35.712Z,16.07
2023-04-07T04:31:06.025Z,15.13
2023-04-07T04:33:40.467Z,15.10
2023-04-07T04:36:08.639Z,14.97
2023-04-07T04:38:36.776Z,14.60
2023-04-07T04:41:18.645Z,14.70
2023-04-07T04:43:47.982Z,15.27
2023-04-07T04:46:20.327Z,14.90
2023-04-07T04:48:49.406Z,14.33
2023-04-07T04:51:18.831Z,14.73
2023-04-07T04:53:51.146Z,14.00
2023-04-07T04:56:21.831Z,14.07
2023-04-07T04:58:51.012Z,14.70
2023-04-07T05:01:33.646Z,13.87
2023-04-07T05:04:10.738Z,14.33
2023-04-07T05:06:43.427Z,14.50
2023-04-07T05:09:13.900Z,13.37
2023-04-07T05:11:48.567Z,12.23
2023-04-07T05:14:16.752Z,12.60
2023-04-07T05:16:51.457Z,12.03
2023-04-07T05:19:23.599Z,12.03
2023-04-07T05:21:54.794Z,12.53
2023-04-07T05:24:26.097Z,12.10
2023-04-07T05:26:58.439Z,11.67
2023-04-07T05:29:27.216Z,11.47
2023-04-07T05:31:56.407Z,11.33
2023-04-07T05:34:24.892Z,13.23
2023-04-07T05:36:55.502Z,11.97
2023-04-07T05:39:23.277Z,11.30
2023-04-07T05:41:54.548Z,12.23
2023-04-07T05:44:27.510Z,11.90
2023-04-07T05:46:56.135Z,11.70
2023-04-07T05:49:26.587Z,12.10
2023-04-07T05:52:03.416Z,10.87
2023-04-07T05:54:31.811Z,11.27
2023-04-07T05:57:02.408Z,11.40
2023-04-07T05:59:33.263Z,11.23
2023-04-07T06:02:02.446Z,11.00
2023-04-07T06:04:31.607Z,11.80
2023-04-07T06:07:01.220Z,12.03
2023-04-07T06:09:29.104Z,11.73
2023-04-07T06:11:57.620Z,11.90
2023-04-07T06:14:25.927Z,11.80
2023-04-07T06:16:55.399Z,12.70
2023-04-07T06:19:23.857Z,12.27
2023-04-07T06:21:51.623Z,11.40
2023-04-07T06:24:22.645Z,11.70
2023-04-07T06:26:50.612Z,11.23
2023-04-07T06:29:18.495Z,12.30
2023-04-07T06:31:46.372Z,12.50
2023-04-07T06:34:16.506Z,11.53
2023-04-07T06:36:45.263Z,12.27
2023-04-07T06:39:13.894Z,11.73
2023-04-07T06:41:43.261Z,10.83
2023-04-07T06:44:11.551Z,10.10
2023-04-07T06:46:41.785Z,11.27
2023-04-07T06:49:09.837Z,11.33
2023-04-07T06:51:39.301Z,9.77
2023-04-07T06:54:12.765Z,11.70
2023-04-07T06:56:40.825Z,10.63
2023-04-07T06:59:08.890Z,10.20
2023-04-07T07:01:37.707Z,11.00
2023-04-07T07:04:07.104Z,10.73
2023-04-07T07:06:34.977Z,10.37
2023-04-07T07:09:04.553Z,10.63
2023-04-07T07:11:32.306Z,10.90
2023-04-07T07:14:00.128Z,10.90
2023-04-07T07:16:28.955Z,11.33
2023-04-07T07:18:56.690Z,10.47
2023-04-07T07:21:24.442Z,11.10
2023-04-07T07:23:52.229Z,10.50
2023-04-07T07:26:22.031Z,10.67
2023-04-07T07:28:49.940Z,10.17
2023-04-07T07:31:17.839Z,9.07
2023-04-07T07:33:51.528Z,9.57
2023-04-07T07:36:19.498Z,10.07
2023-04-07T07:38:48.061Z,10.27
2023-04-07T07:41:16.165Z,9.43
2023-04-07T07:43:45.601Z,9.47
2023-04-07T07:46:13.621Z,9.37
2023-04-07T07:48:41.548Z,9.80
2023-04-07T07:51:09.348Z,9.87
2023-04-07T07:53:37.493Z,10.30
2023-04-07T07:56:05.442Z,10.20
2023-04-07T07:58:33.254Z,10.13
2023-04-07T08:01:02.649Z,10.80
2023-04-07T08:03:30.641Z,10.50
2023-04-07T08:05:58.560Z,10.93
2023-04-07T08:08:26.361Z,11.33
2023-04-07T08:10:54.180Z,11.93
2023-04-07T08:13:21.897Z,12.63
2023-04-07T08:15:49.884Z,12.17
2023-04-07T08:18:19.444Z,12.57
2023-04-07T08:20:47.874Z,11.70
2023-04-07T08:23:15.895Z,12.13
2023-04-07T08:25:43.694Z,11.73
2023-04-07T08:28:11.493Z,11.43
2023-04-07T08:30:39.441Z,12.13
2023-04-07T08:33:07.442Z,11.40
2023-04-07T08:35:36.887Z,12.87
2023-04-07T08:38:05.737Z,12.20
2023-04-07T08:40:33.834Z,11.23
2023-04-07T08:43:06.194Z,11.70
2023-04-07T08:45:35.125Z,12.47
2023-04-07T08:48:12.302Z,13.37
2023-04-07T08:50:45.391Z,12.13
2023-04-07T08:53:14.422Z,11.50
2023-04-07T08:55:42.590Z,11.90
2023-04-07T08:58:12.422Z,11.37
2023-04-07T09:00:42.844Z,11.23
2023-04-07T09:03:11.950Z,11.73
2023-04-07T09:05:41.912Z,10.80
2023-04-07T09:08:09.668Z,11.20
2023-04-07T09:10:37.893Z,10.50
2023-04-07T09:13:06.175Z,11.43
2023-04-07T09:15:35.815Z,11.03
2023-04-07T09:18:05.097Z,10.50
2023-04-07T09:21:02.425Z,10.73
2023-04-07T09:23:32.529Z,10.83
2023-04-07T09:26:01.783Z,10.63
2023-04-07T09:28:46.653Z,11.10
2023-04-07T09:31:14.665Z,10.30
2023-04-07T09:33:42.937Z,11.53
2023-04-07T09:36:12.342Z,10.47
2023-04-07T09:38:41.664Z,10.87
2023-04-07T09:41:11.276Z,11.70
2023-04-07T09:43:41.634Z,11.27
2023-04-07T09:46:13.805Z,11.67
2023-04-07T09:48:42.652Z,11.70
2023-04-07T09:51:13.819Z,12.27
2023-04-07T09:53:47.693Z,11.47
2023-04-07T09:56:17.325Z,12.13
2023-04-07T09:58:47.176Z,12.33
2023-04-07T10:01:16.798Z,12.67
2023-04-07T10:03:47.408Z,12.83
2023-04-07T10:06:17.968Z,12.53
2023-04-07T10:08:46.124Z,11.90
2023-04-07T10:11:14.204Z,13.17
2023-04-07T10:13:42.514Z,13.17
2023-04-07T10:16:10.799Z,12.37
2023-04-07T10:18:42.937Z,12.83
2023-04-07T10:21:15.620Z,13.47
2023-04-07T10:23:56.152Z,12.27
2023-04-07T10:26:33.302Z,12.53
2023-04-07T10:29:06.014Z,11.10
2023-04-07T10:31:35.142Z,11.17
2023-04-07T10:34:05.878Z,11.23
2023-04-07T10:36:34.882Z,11.60
2023-04-07T10:39:24.279Z,10.77
2023-04-07T10:41:53.415Z,10.13
2023-04-07T10:44:50.965Z,11.13
2023-04-07T10:47:22.045Z,9.43
2023-04-07T10:50:19.397Z,8.80
2023-04-07T10:52:49.545Z,9.33
2023-04-07T10:55:34.980Z,8.03
2023-04-07T10:58:24.664Z,8.33
2023-04-07T11:01:24.473Z,8.20
2023-04-07T11:03:59.166Z,7.73
2023-04-07T11:06:30.332Z,8.90
2023-04-07T11:09:01.132Z,7.60
2023-04-07T11:11:44.722Z,7.70
2023-04-07T11:14:13.203Z,8.33
2023-04-07T11:16:46.162Z,7.87
2023-04-07T11:19:19.354Z,7.33
2023-04-07T11:21:47.947Z,7.63
2023-04-07T11:24:34.185Z,7.47
2023-04-07T11:27:04.072Z,8.63
2023-04-07T11:29:33.028Z,7.70
2023-04-07T11:32:03.523Z,7.43
2023-04-07T11:34:32.275Z,7.67
2023-04-07T11:37:19.630Z,7.93
2023-04-07T11:39:54.897Z,8.37
2023-04-07T11:42:34.566Z,8.20
2023-04-07T11:45:02.390Z,8.07
2023-04-07T11:47:37.215Z,8.80
2023-04-07T11:50:06.407Z,9.03
2023-04-07T11:52:42.907Z,8.90
2023-04-07T11:55:21.522Z,9.07
2023-04-07T11:57:52.310Z,9.57
2023-04-07T12:00:21.523Z,9.30
2023-04-07T12:02:49.408Z,9.67
2023-04-07T12:05:17.667Z,9.80
2023-04-07T12:07:55.436Z,10.27
2023-04-07T12:10:25.572Z,9.70
2023-04-07T12:12:54.729Z,9.87
2023-04-07T12:15:22.949Z,10.03
2023-04-07T12:17:50.817Z,10.37
2023-04-07T12:20:19.054Z,10.47
2023-04-07T12:22:47.522Z,10.77
2023-04-07T12:25:15.413Z,12.43
2023-04-07T12:27:43.943Z,10.60
2023-04-07T12:30:14.392Z,11.13
2023-04-07T12:32:42.667Z,10.87
2023-04-07T12:35:10.562Z,12.27
2023-04-07T12:37:39.607Z,11.63
2023-04-07T12:40:08.874Z,11.80
2023-04-07T12:42:36.943Z,12.20
2023-04-07T12:45:05.434Z,12.13
2023-04-07T12:47:35.051Z,12.13
2023-04-07T12:50:03.685Z,12.03
2023-04-07T12:52:32.016Z,12.30
2023-04-07T12:54:59.778Z,11.93
2023-04-07T12:57:27.570Z,12.40
2023-04-07T12:59:55.406Z,12.73
2023-04-07T13:02:23.502Z,12.73
2023-04-07T13:04:53.013Z,13.13
2023-04-07T13:07:21.932Z,12.83
2023-04-07T13:09:49.672Z,12.83
2023-04-07T13:12:17.940Z,12.67
2023-04-07T13:14:56.875Z,12.63
2023-04-07T13:17:29.000Z,11.70
2023-04-07T13:19:59.205Z,13.30
2023-04-07T13:22:27.549Z,12.80
2023-04-07T13:24:55.634Z,12.90
2023-04-07T13:27:23.405Z,11.67
2023-04-07T13:29:51.139Z,12.60
2023-04-07T13:32:18.947Z,12.07
2023-04-07T13:34:46.720Z,12.77
2023-04-07T13:37:16.640Z,12.40
2023-04-07T13:39:44.461Z,12.53
2023-04-07T13:42:12.746Z,12.00
2023-04-07T13:44:40.484Z,13.43
2023-04-07T13:47:08.736Z,15.50
2023-04-07T13:49:36.839Z,14.87
2023-04-07T13:52:04.678Z,14.27
2023-04-07T13:54:33.950Z,13.23
2023-04-07T13:57:01.900Z,12.83
2023-04-07T13:59:29.657Z,13.13
2023-04-07T14:01:57.549Z,13.63
2023-04-07T14:04:25.462Z,12.13
2023-04-07T14:06:53.279Z,11.97
2023-04-07T14:09:21.394Z,12.17
2023-04-07T14:11:50.582Z,11.37
2023-04-07T14:14:18.367Z,12.10
2023-04-07T14:16:46.169Z,12.00
2023-04-07T14:19:14.248Z,11.97
2023-04-07T14:21:42.124Z,11.73
2023-04-07T14:24:09.926Z,11.87
2023-04-07T14:26:37.754Z,12.07
2023-04-07T14:29:06.895Z,12.03
2023-04-07T14:31:35.100Z,12.37
2023-04-07T14:34:02.945Z,13.30
2023-04-07T14:36:31.588Z,13.60
2023-04-07T14:38:59.483Z,13.83
2023-04-07T14:41:27.226Z,13.80
2023-04-07T14:43:56.721Z,15.60
2023-04-07T14:46:27.414Z,14.10
2023-04-07T14:48:55.919Z,16.10
2023-04-07T14:51:23.638Z,15.33
2023-04-07T14:53:56.122Z,15.97
2023-04-07T14:56:25.756Z,15.80
2023-04-07T14:58:53.486Z,15.03
2023-04-07T15:01:21.529Z,16.77
2023-04-07T15:03:52.733Z,15.00
2023-04-07T15:06:21.162Z,16.80
2023-04-07T15:08:49.016Z,15.83
2023-04-07T15:11:16.724Z,15.13
2023-04-07T15:13:44.465Z,14.50
2023-04-07T15:16:14.099Z,15.47
2023-04-07T15:18:44.437Z,13.00
2023-04-07T15:21:15.599Z,13.37
2023-04-07T15:23:44.102Z,14.67
2023-04-07T15:26:11.827Z,12.87
2023-04-07T15:28:40.080Z,13.63
2023-04-07T15:31:09.898Z,12.73
2023-04-07T15:33:38.900Z,12.63
2023-04-07T15:36:07.958Z,12.80
2023-04-07T15:38:38.875Z,12.10
2023-04-07T15:41:07.113Z,13.90
2023-04-07T15:43:35.605Z,13.80
2023-04-07T15:46:03.372Z,13.40
2023-04-07T15:48:31.442Z,14.90
2023-04-07T15:50:59.358Z,14.13
2023-04-07T15:53:27.240Z,13.87
2023-04-07T15:55:56.415Z,14.63
2023-04-07T15:58:24.217Z,13.97
2023-04-07T16:00:52.642Z,15.33
2023-04-07T16:03:20.727Z,14.33
2023-04-07T16:05:48.594Z,13.60
2023-04-07T16:08:16.296Z,15.33
2023-04-07T16:10:44.433Z,15.40
2023-04-07T16:13:13.631Z,14.30
2023-04-07T16:15:41.931Z,14.90
2023-04-07T16:18:12.077Z,15.50
2023-04-07T16:20:39.982Z,13.57
2023-04-07T16:23:07.735Z,12.17
2023-04-07T16:25:36.344Z,13.77
2023-04-07T16:28:04.337Z,13.23
2023-04-07T16:30:33.602Z,12.57
2023-04-07T16:33:01.570Z,12.73
2023-04-07T16:35:32.588Z,12.87
2023-04-07T16:38:04.100Z,12.87
2023-04-07T16:40:32.035Z,15.50
2023-04-07T16:42:59.935Z,14.97
2023-04-07T16:45:28.034Z,14.23
2023-04-07T16:47:57.342Z,15.97
2023-04-07T16:50:25.065Z,16.87
2023-04-07T16:52:53.034Z,15.87
2023-04-07T16:55:21.113Z,17.17
2023-04-07T16:57:50.093Z,17.53
2023-04-07T17:00:19.295Z,17.47
2023-04-07T17:02:47.177Z,16.53
2023-04-07T17:05:17.261Z,17.23
2023-04-07T17:07:44.989Z,16.50
2023-04-07T17:10:13.985Z,16.37
2023-04-07T17:12:41.710Z,16.00
2023-04-07T17:15:10.204Z,15.37
2023-04-07T17:17:39.240Z,15.53
2023-04-07T17:20:08.223Z,16.17
2023-04-07T17:22:37.425Z,15.80
2023-04-07T17:25:06.567Z,17.07
2023-04-07T17:27:34.812Z,16.57
2023-04-07T17:30:03.129Z,16.50
2023-04-07T17:32:30.993Z,14.10
2023-04-07T17:34:58.917Z,13.93
2023-04-07T17:37:26.795Z,13.80
2023-04-07T17:39:56.005Z,12.43
2023-04-07T17:42:23.871Z,12.67
2023-04-07T17:44:53.703Z,11.43
2023-04-07T17:47:21.664Z,12.87
2023-04-07T17:49:49.403Z,12.00
2023-04-07T17:52:17.512Z,11.43
2023-04-07T17:54:45.263Z,10.80
2023-04-07T17:57:15.920Z,12.33
2023-04-07T17:59:43.752Z,11.67
2023-04-07T18:02:11.813Z,11.70
2023-04-07T18:04:40.474Z,12.70
2023-04-07T18:07:08.786Z,12.23
2023-04-07T18:09:36.833Z,11.87
2023-04-07T18:12:04.854Z,13.00
2023-04-07T18:14:34.351Z,13.30
2023-04-07T18:17:02.262Z,14.70
2023-04-07T18:19:31.224Z,13.47
2023-04-07T18:22:00.177Z,14.50
2023-04-07T18:24:27.995Z,14.30
2023-04-07T18:26:56.756Z,15.47
2023-04-07T18:29:24.688Z,16.73
2023-04-07T18:31:54.118Z,16.60
2023-04-07T18:34:21.918Z,16.70
2023-04-07T18:36:50.100Z,17.20
2023-04-07T18:39:17.834Z,15.77
2023-04-07T18:41:47.520Z,16.73
2023-04-07T18:44:15.964Z,17.53
2023-04-07T18:46:44.180Z,16.83
2023-04-07T18:49:13.534Z,17.60
2023-04-07T18:51:42.426Z,18.60
2023-04-07T18:54:10.340Z,17.00
2023-04-07T18:56:38.422Z,17.20
2023-04-07T18:59:07.224Z,18.23
2023-04-07T19:01:35.142Z,16.40
2023-04-07T19:04:03.717Z,18.70
2023-04-07T19:06:33.624Z,17.27
2023-04-07T19:09:03.810Z,19.37
2023-04-07T19:11:31.551Z,18.43
2023-04-07T19:13:59.392Z,18.07
2023-04-07T19:16:27.588Z,17.20
2023-04-07T19:18:55.646Z,17.83
2023-04-07T19:21:23.536Z,20.13
2023-04-07T19:23:52.917Z,17.67
2023-04-07T19:26:21.412Z,18.77
2023-04-07T19:28:49.701Z,18.43
2023-04-07T19:31:18.101Z,19.00
2023-04-07T19:33:46.017Z,18.40
2023-04-07T19:36:14.129Z,19.53
2023-04-07T19:38:41.999Z,18.10
2023-04-07T19:41:11.377Z,19.77
2023-04-07T19:43:39.082Z,19.17
2023-04-07T19:46:08.874Z,20.10
2023-04-07T19:48:42.482Z,17.83
2023-04-07T19:51:10.248Z,18.13
2023-04-07T19:53:38.035Z,20.57
2023-04-07T19:56:06.181Z,20.83
2023-04-07T19:58:35.600Z,20.47
2023-04-07T20:01:04.491Z,22.00
2023-04-07T20:03:32.545Z,21.50
2023-04-07T20:06:01.075Z,21.73
2023-04-07T20:08:28.873Z,21.93
2023-04-07T20:10:56.763Z,22.07
2023-04-07T20:13:24.588Z,21.50
2023-04-07T20:15:53.831Z,21.47
2023-04-07T20:18:21.563Z,22.40
2023-04-07T20:20:50.296Z,22.00
2023-04-07T20:23:22.126Z,21.47
2023-04-07T20:25:50.036Z,21.27
2023-04-07T20:28:17.777Z,22.30
2023-04-07T20:30:46.333Z,22.17
2023-04-07T20:33:15.708Z,21.40
2023-04-07T20:35:43.654Z,22.63
2023-04-07T20:38:11.607Z,22.23
2023-04-07T20:40:39.462Z,22.10
2023-04-07T20:43:07.477Z,21.90
2023-04-07T20:45:35.250Z,22.23
2023-04-07T20:48:03.128Z,21.87
2023-04-07T20:50:33.229Z,21.07
2023-04-07T20:53:01.305Z,19.50
2023-04-07T20:55:29.540Z,22.90
2023-04-07T20:57:57.417Z,22.43
2023-04-07T21:00:25.983Z,21.73
2023-04-07T21:02:54.384Z,21.50
2023-04-07T21:05:22.423Z,22.23
2023-04-07T21:07:51.559Z,22.77
2023-04-07T21:10:19.608Z,23.90
2023-04-07T21:12:47.524Z,22.67
2023-04-07T21:15:15.785Z,24.07
2023-04-07T21:17:43.727Z,24.67
2023-04-07T21:20:12.569Z,22.03
2023-04-07T21:22:40.481Z,22.90
2023-04-07T21:25:10.726Z,23.70
2023-04-07T21:27:38.579Z,24.27
2023-04-07T21:30:07.260Z,24.10
2023-04-07T21:32:35.207Z,24.93
2023-04-07T21:35:03.740Z,24.50
2023-04-07T21:37:31.950Z,24.40
2023-04-07T21:39:59.716Z,25.80
2023-04-07T21:42:28.916Z,25.37
2023-04-07T21:44:57.039Z,26.17
2023-04-07T21:47:24.976Z,26.90
2023-04-07T21:49:53.399Z,27.17
2023-04-07T21:52:21.297Z,26.53
2023-04-07T21:54:49.102Z,26.47
2023-04-07T21:57:16.927Z,26.60
2023-04-07T21:59:46.188Z,27.40
2023-04-07T22:02:14.422Z,27.57
2023-04-07T22:04:42.837Z,26.00
2023-04-07T22:07:11.568Z,26.27
2023-04-07T22:09:39.443Z,27.57
2023-04-07T22:12:07.267Z,26.57
2023-04-07T22:14:35.025Z,27.03
2023-04-07T22:17:04.386Z,26.93
2023-04-07T22:19:32.275Z,27.23
2023-04-07T22:22:00.497Z,27.43
2023-04-07T22:24:28.357Z,26.87
2023-04-07T22:26:57.267Z,26.90
2023-04-07T22:29:25.118Z,26.67
2023-04-07T22:31:53.059Z,26.57
2023-04-07T22:34:22.631Z,25.33
2023-04-07T22:36:50.374Z,27.33
2023-04-07T22:39:18.152Z,26.47
2023-04-07T22:41:45.938Z,27.50
2023-04-07T22:44:13.910Z,26.30
2023-04-07T22:46:41.889Z,25.67
2023-04-07T22:49:09.803Z,26.50
2023-04-07T22:51:39.066Z,25.87
2023-04-07T22:54:06.839Z,26.17
2023-04-07T22:56:34.608Z,25.50
2023-04-07T22:59:05.642Z,26.37
2023-04-07T23:01:34.305Z,27.87
2023-04-07T23:04:02.314Z,25.00
2023-04-07T23:06:30.013Z,26.60
2023-04-07T23:08:59.616Z,26.77
2023-04-07T23:11:27.396Z,26.57
2023-04-07T23:13:55.302Z,26.50
2023-04-07T23:16:24.313Z,27.50
2023-04-07T23:18:52.352Z,26.87
2023-04-07T23:21:20.157Z,23.27
2023-04-07T23:23:48.669Z,23.60
2023-04-07T23:26:17.940Z,22.60
2023-04-07T23:28:46.283Z,23.40
2023-04-07T23:31:14.405Z,24.70
2023-04-07T23:33:42.321Z,23.00
2023-04-07T23:36:10.225Z,21.33
2023-04-07T23:38:39.497Z,23.17
2023-04-07T23:41:07.656Z,20.43
2023-04-07T23:43:36.849Z,20.37
2023-04-07T23:46:04.888Z,19.50
2023-04-07T23:48:32.703Z,18.27
2023-04-07T23:51:00.892Z,20.47
2023-04-07T23:53:28.853Z,19.47
2023-04-07T23:55:56.875Z,18.50
2023-04-07T23:58:25.293Z,19.80
